sensor_id;sensor_type;location;lat;lon;timestamp;temperature;humidity
51305;HTU21D;37392;50.964;6.952;2023-01-09T00:00:42;7.49;-4.70
51305;HTU21D;37392;50.964;6.952;2023-01-09T00:03:09;7.44;-5.35
51305;HTU21D;37392;50.964;6.952;2023-01-09T00:05:34;7.38;-5.84
51305;HTU21D;37392;50.964;6.952;2023-01-09T00:08:00;7.29;118.66
51305;HTU21D;37392;50.964;6.952;2023-01-09T00:10:26;7.23;-5.25
51305;HTU21D;37392;50.964;6.952;2023-01-09T00:12:52;7.20;-4.47
51305;HTU21D;37392;50.964;6.952;2023-01-09T00:15:17;7.23;-4.73
51305;HTU21D;37392;50.964;6.952;2023-01-09T00:17:43;7.19;-4.29
51305;HTU21D;37392;50.964;6.952;2023-01-09T00:20:09;7.16;-3.52
51305;HTU21D;37392;50.964;6.952;2023-01-09T00:22:36;7.18;-3.14
51305;HTU21D;37392;50.964;6.952;2023-01-09T00:25:02;7.20;-2.95
51305;HTU21D;37392;50.964;6.952;2023-01-09T00:27:32;7.23;-2.45
51305;HTU21D;37392;50.964;6.952;2023-01-09T00:29:58;7.25;-3.18
51305;HTU21D;37392;50.964;6.952;2023-01-09T00:32:24;7.19;-2.96
51305;HTU21D;37392;50.964;6.952;2023-01-09T00:34:50;7.17;-2.40
51305;HTU21D;37392;50.964;6.952;2023-01-09T00:37:16;7.18;-2.19
51305;HTU21D;37392;50.964;6.952;2023-01-09T00:39:44;7.23;-2.44
51305;HTU21D;37392;50.964;6.952;2023-01-09T00:42:13;7.16;-2.45
51305;HTU21D;37392;50.964;6.952;2023-01-09T00:44:46;7.16;-2.44
51305;HTU21D;37392;50.964;6.952;2023-01-09T00:47:29;7.11;-2.35
51305;HTU21D;37392;50.964;6.952;2023-01-09T00:50:02;7.12;-2.21
51305;HTU21D;37392;50.964;6.952;2023-01-09T00:52:32;7.07;-2.21
51305;HTU21D;37392;50.964;6.952;2023-01-09T00:55:00;7.10;-1.87
51305;HTU21D;37392;50.964;6.952;2023-01-09T00:57:26;7.09;-1.78
51305;HTU21D;37392;50.964;6.952;2023-01-09T00:59:52;7.09;-1.95
51305;HTU21D;37392;50.964;6.952;2023-01-09T01:02:21;7.10;-2.98
51305;HTU21D;37392;50.964;6.952;2023-01-09T01:04:47;7.05;-2.80
51305;HTU21D;37392;50.964;6.952;2023-01-09T01:07:31;7.02;-2.31
51305;HTU21D;37392;50.964;6.952;2023-01-09T01:10:08;7.02;-2.03
51305;HTU21D;37392;50.964;6.952;2023-01-09T01:12:40;6.98;-2.14
51305;HTU21D;37392;50.964;6.952;2023-01-09T01:15:07;6.99;-1.93
51305;HTU21D;37392;50.964;6.952;2023-01-09T01:17:35;6.95;-2.03
51305;HTU21D;37392;50.964;6.952;2023-01-09T01:20:04;6.94;-2.22
51305;HTU21D;37392;50.964;6.952;2023-01-09T01:22:31;6.90;-2.45
51305;HTU21D;37392;50.964;6.952;2023-01-09T01:24:56;6.85;-2.66
51305;HTU21D;37392;50.964;6.952;2023-01-09T01:27:22;6.84;-3.18
51305;HTU21D;37392;50.964;6.952;2023-01-09T01:29:48;6.85;-3.15
51305;HTU21D;37392;50.964;6.952;2023-01-09T01:32:14;6.82;-3.22
51305;HTU21D;37392;50.964;6.952;2023-01-09T01:34:39;6.82;-3.51
51305;HTU21D;37392;50.964;6.952;2023-01-09T01:37:05;6.78;-3.80
51305;HTU21D;37392;50.964;6.952;2023-01-09T01:39:31;6.76;-4.18
51305;HTU21D;37392;50.964;6.952;2023-01-09T01:41:56;6.75;-4.50
51305;HTU21D;37392;50.964;6.952;2023-01-09T01:50:45;6.66;-4.69
51305;HTU21D;37392;50.964;6.952;2023-01-09T01:53:18;6.66;-4.09
51305;HTU21D;37392;50.964;6.952;2023-01-09T01:59:04;6.72;-4.58
51305;HTU21D;37392;50.964;6.952;2023-01-09T02:01:37;6.73;-4.72
51305;HTU21D;37392;50.964;6.952;2023-01-09T02:04:06;6.70;-5.04
51305;HTU21D;37392;50.964;6.952;2023-01-09T02:06:33;6.64;-5.02
51305;HTU21D;37392;50.964;6.952;2023-01-09T02:09:01;6.58;-4.79
51305;HTU21D;37392;50.964;6.952;2023-01-09T02:11:27;6.51;-4.34
51305;HTU21D;37392;50.964;6.952;2023-01-09T02:13:53;6.49;-4.28
51305;HTU21D;37392;50.964;6.952;2023-01-09T02:39:53;6.02;-3.65
51305;HTU21D;37392;50.964;6.952;2023-01-09T02:42:22;5.92;-3.56
51305;HTU21D;37392;50.964;6.952;2023-01-09T02:44:50;5.89;-3.41
51305;HTU21D;37392;50.964;6.952;2023-01-09T02:49:53;5.96;-3.03
51305;HTU21D;37392;50.964;6.952;2023-01-09T03:07:29;6.66;-5.25
51305;HTU21D;37392;50.964;6.952;2023-01-09T03:10:31;6.75;-5.80
51305;HTU21D;37392;50.964;6.952;2023-01-09T03:13:01;6.76;-5.85
51305;HTU21D;37392;50.964;6.952;2023-01-09T03:15:31;6.84;118.63
51305;HTU21D;37392;50.964;6.952;2023-01-09T03:18:00;6.82;118.49
51305;HTU21D;37392;50.964;6.952;2023-01-09T03:20:26;6.80;118.09
51305;HTU21D;37392;50.964;6.952;2023-01-09T03:23:00;6.69;117.54
51305;HTU21D;37392;50.964;6.952;2023-01-09T03:25:28;6.56;117.87
51305;HTU21D;37392;50.964;6.952;2023-01-09T03:27:57;6.37;118.16
51305;HTU21D;37392;50.964;6.952;2023-01-09T03:30:26;6.17;118.62
51305;HTU21D;37392;50.964;6.952;2023-01-09T03:32:52;6.02;-5.95
51305;HTU21D;37392;50.964;6.952;2023-01-09T03:35:18;5.95;-5.29
51305;HTU21D;37392;50.964;6.952;2023-01-09T03:37:44;5.99;118.91
51305;HTU21D;37392;50.964;6.952;2023-01-09T03:40:09;5.94;-5.76
51305;HTU21D;37392;50.964;6.952;2023-01-09T03:42:35;5.87;-5.35
51305;HTU21D;37392;50.964;6.952;2023-01-09T03:45:03;5.87;-5.51
51305;HTU21D;37392;50.964;6.952;2023-01-09T03:47:29;5.83;-5.57
51305;HTU21D;37392;50.964;6.952;2023-01-09T03:49:54;5.80;-5.69
51305;HTU21D;37392;50.964;6.952;2023-01-09T03:52:20;5.68;-5.44
51305;HTU21D;37392;50.964;6.952;2023-01-09T03:54:46;5.55;-4.99
51305;HTU21D;37392;50.964;6.952;2023-01-09T03:57:11;5.51;-5.05
51305;HTU21D;37392;50.964;6.952;2023-01-09T03:59:37;5.41;-4.89
51305;HTU21D;37392;50.964;6.952;2023-01-09T04:02:03;5.34;-4.95
51305;HTU21D;37392;50.964;6.952;2023-01-09T04:04:29;5.27;-4.65
51305;HTU21D;37392;50.964;6.952;2023-01-09T04:06:54;5.17;-4.81
51305;HTU21D;37392;50.964;6.952;2023-01-09T04:09:20;5.06;-4.26
51305;HTU21D;37392;50.964;6.952;2023-01-09T04:11:45;5.10;-3.83
51305;HTU21D;37392;50.964;6.952;2023-01-09T04:14:11;5.10;-4.00
51305;HTU21D;37392;50.964;6.952;2023-01-09T04:16:36;5.05;-4.12
51305;HTU21D;37392;50.964;6.952;2023-01-09T04:19:02;4.89;-4.28
51305;HTU21D;37392;50.964;6.952;2023-01-09T04:21:27;4.73;-3.81
51305;HTU21D;37392;50.964;6.952;2023-01-09T04:23:53;4.73;-3.38
51305;HTU21D;37392;50.964;6.952;2023-01-09T04:26:18;4.73;-3.13
51305;HTU21D;37392;50.964;6.952;2023-01-09T04:28:44;4.62;-3.18
51305;HTU21D;37392;50.964;6.952;2023-01-09T04:31:10;4.61;-2.87
51305;HTU21D;37392;50.964;6.952;2023-01-09T04:33:35;4.52;-2.77
51305;HTU21D;37392;50.964;6.952;2023-01-09T04:36:01;4.49;-2.65
51305;HTU21D;37392;50.964;6.952;2023-01-09T04:38:27;4.42;-2.39
51305;HTU21D;37392;50.964;6.952;2023-01-09T04:40:52;4.50;-2.14
51305;HTU21D;37392;50.964;6.952;2023-01-09T04:43:18;4.49;-2.19
51305;HTU21D;37392;50.964;6.952;2023-01-09T04:45:44;4.59;-2.27
51305;HTU21D;37392;50.964;6.952;2023-01-09T04:48:09;4.71;-2.09
51305;HTU21D;37392;50.964;6.952;2023-01-09T04:50:45;4.81;-2.25
51305;HTU21D;37392;50.964;6.952;2023-01-09T04:53:11;4.97;-2.15
51305;HTU21D;37392;50.964;6.952;2023-01-09T04:55:36;5.05;-2.70
51305;HTU21D;37392;50.964;6.952;2023-01-09T04:58:02;5.23;-2.73
51305;HTU21D;37392;50.964;6.952;2023-01-09T05:00:27;5.34;-3.20
51305;HTU21D;37392;50.964;6.952;2023-01-09T05:02:53;5.40;-3.63
51305;HTU21D;37392;50.964;6.952;2023-01-09T05:05:19;5.55;-5.31
51305;HTU21D;37392;50.964;6.952;2023-01-09T05:07:44;5.71;118.15
51305;HTU21D;37392;50.964;6.952;2023-01-09T05:10:10;5.82;116.61
51305;HTU21D;37392;50.964;6.952;2023-01-09T05:12:36;5.86;115.15
51305;HTU21D;37392;50.964;6.952;2023-01-09T05:15:03;5.99;113.87
51305;HTU21D;37392;50.964;6.952;2023-01-09T05:17:29;6.06;113.29
51305;HTU21D;37392;50.964;6.952;2023-01-09T05:19:54;6.10;113.31
51305;HTU21D;37392;50.964;6.952;2023-01-09T05:22:20;6.20;112.31
51305;HTU21D;37392;50.964;6.952;2023-01-09T05:24:46;6.22;112.01
51305;HTU21D;37392;50.964;6.952;2023-01-09T05:27:11;6.24;112.45
51305;HTU21D;37392;50.964;6.952;2023-01-09T05:29:37;6.28;111.66
51305;HTU21D;37392;50.964;6.952;2023-01-09T05:32:32;6.36;111.18
51305;HTU21D;37392;50.964;6.952;2023-01-09T05:34:57;6.37;110.70
51305;HTU21D;37392;50.964;6.952;2023-01-09T05:37:23;6.36;111.75
51305;HTU21D;37392;50.964;6.952;2023-01-09T05:39:48;6.35;110.83
51305;HTU21D;37392;50.964;6.952;2023-01-09T05:42:14;6.39;111.36
51305;HTU21D;37392;50.964;6.952;2023-01-09T05:44:39;6.37;111.39
51305;HTU21D;37392;50.964;6.952;2023-01-09T05:47:05;6.35;111.84
51305;HTU21D;37392;50.964;6.952;2023-01-09T05:49:31;6.36;111.58
51305;HTU21D;37392;50.964;6.952;2023-01-09T05:51:56;6.41;111.80
51305;HTU21D;37392;50.964;6.952;2023-01-09T05:54:22;6.48;110.99
51305;HTU21D;37392;50.964;6.952;2023-01-09T05:56:47;6.53;110.02
51305;HTU21D;37392;50.964;6.952;2023-01-09T05:59:13;6.52;109.26
51305;HTU21D;37392;50.964;6.952;2023-01-09T06:01:39;6.54;110.44
51305;HTU21D;37392;50.964;6.952;2023-01-09T06:04:04;6.55;110.23
51305;HTU21D;37392;50.964;6.952;2023-01-09T06:06:30;6.56;110.22
51305;HTU21D;37392;50.964;6.952;2023-01-09T06:08:55;6.53;108.67
51305;HTU21D;37392;50.964;6.952;2023-01-09T06:11:21;6.55;109.91
51305;HTU21D;37392;50.964;6.952;2023-01-09T06:13:46;6.53;109.96
51305;HTU21D;37392;50.964;6.952;2023-01-09T06:16:12;6.55;110.46
51305;HTU21D;37392;50.964;6.952;2023-01-09T06:18:38;6.58;110.83
51305;HTU21D;37392;50.964;6.952;2023-01-09T06:21:04;6.59;111.05
51305;HTU21D;37392;50.964;6.952;2023-01-09T06:23:30;6.63;111.13
51305;HTU21D;37392;50.964;6.952;2023-01-09T06:25:55;6.69;110.08
51305;HTU21D;37392;50.964;6.952;2023-01-09T06:28:21;6.72;109.65
51305;HTU21D;37392;50.964;6.952;2023-01-09T06:30:51;6.78;109.52
51305;HTU21D;37392;50.964;6.952;2023-01-09T06:33:19;6.78;109.17
51305;HTU21D;37392;50.964;6.952;2023-01-09T06:35:45;6.78;109.42
51305;HTU21D;37392;50.964;6.952;2023-01-09T06:38:11;6.76;108.11
51305;HTU21D;37392;50.964;6.952;2023-01-09T06:40:37;6.83;108.45
51305;HTU21D;37392;50.964;6.952;2023-01-09T06:43:02;6.89;107.73
51305;HTU21D;37392;50.964;6.952;2023-01-09T06:45:28;6.87;109.17
51305;HTU21D;37392;50.964;6.952;2023-01-09T06:47:53;6.84;109.46
51305;HTU21D;37392;50.964;6.952;2023-01-09T06:50:20;6.83;109.58
51305;HTU21D;37392;50.964;6.952;2023-01-09T06:52:46;6.85;109.06
51305;HTU21D;37392;50.964;6.952;2023-01-09T06:55:11;6.80;109.52
51305;HTU21D;37392;50.964;6.952;2023-01-09T06:57:37;6.87;109.62
51305;HTU21D;37392;50.964;6.952;2023-01-09T07:00:03;6.87;109.46
51305;HTU21D;37392;50.964;6.952;2023-01-09T07:02:29;6.87;109.07
51305;HTU21D;37392;50.964;6.952;2023-01-09T07:04:55;6.91;108.85
51305;HTU21D;37392;50.964;6.952;2023-01-09T07:07:21;6.94;108.57
51305;HTU21D;37392;50.964;6.952;2023-01-09T07:09:47;6.95;108.48
51305;HTU21D;37392;50.964;6.952;2023-01-09T07:12:12;6.99;108.30
51305;HTU21D;37392;50.964;6.952;2023-01-09T07:14:40;6.95;108.46
51305;HTU21D;37392;50.964;6.952;2023-01-09T07:17:05;6.97;108.38
51305;HTU21D;37392;50.964;6.952;2023-01-09T07:19:31;6.98;108.97
51305;HTU21D;37392;50.964;6.952;2023-01-09T07:21:57;7.01;107.79
51305;HTU21D;37392;50.964;6.952;2023-01-09T07:24:23;7.08;107.84
51305;HTU21D;37392;50.964;6.952;2023-01-09T07:26:48;7.10;107.50
51305;HTU21D;37392;50.964;6.952;2023-01-09T07:29:14;7.12;107.46
51305;HTU21D;37392;50.964;6.952;2023-01-09T07:31:39;7.17;106.72
51305;HTU21D;37392;50.964;6.952;2023-01-09T07:34:05;7.13;108.43
51305;HTU21D;37392;50.964;6.952;2023-01-09T07:36:31;7.18;107.45
51305;HTU21D;37392;50.964;6.952;2023-01-09T07:38:56;7.23;107.20
51305;HTU21D;37392;50.964;6.952;2023-01-09T07:41:22;7.23;107.19
51305;HTU21D;37392;50.964;6.952;2023-01-09T07:43:48;7.25;107.26
51305;HTU21D;37392;50.964;6.952;2023-01-09T07:46:14;7.28;106.88
51305;HTU21D;37392;50.964;6.952;2023-01-09T07:48:39;7.29;107.01
51305;HTU21D;37392;50.964;6.952;2023-01-09T07:51:05;7.33;106.36
51305;HTU21D;37392;50.964;6.952;2023-01-09T07:53:30;7.37;106.52
51305;HTU21D;37392;50.964;6.952;2023-01-09T07:55:56;7.38;106.56
51305;HTU21D;37392;50.964;6.952;2023-01-09T07:58:22;7.38;106.62
51305;HTU21D;37392;50.964;6.952;2023-01-09T08:00:49;7.37;106.56
51305;HTU21D;37392;50.964;6.952;2023-01-09T08:03:15;7.46;105.76
51305;HTU21D;37392;50.964;6.952;2023-01-09T08:05:41;7.43;106.44
51305;HTU21D;37392;50.964;6.952;2023-01-09T08:08:06;7.42;106.11
51305;HTU21D;37392;50.964;6.952;2023-01-09T08:10:32;7.45;107.33
51305;HTU21D;37392;50.964;6.952;2023-01-09T08:12:58;7.41;107.38
51305;HTU21D;37392;50.964;6.952;2023-01-09T08:15:23;7.34;109.39
51305;HTU21D;37392;50.964;6.952;2023-01-09T08:17:49;7.33;109.95
51305;HTU21D;37392;50.964;6.952;2023-01-09T08:20:16;7.28;110.30
51305;HTU21D;37392;50.964;6.952;2023-01-09T08:22:44;7.30;109.18
51305;HTU21D;37392;50.964;6.952;2023-01-09T08:25:15;7.29;110.35
51305;HTU21D;37392;50.964;6.952;2023-01-09T08:27:42;7.31;109.90
51305;HTU21D;37392;50.964;6.952;2023-01-09T08:30:08;7.34;110.40
51305;HTU21D;37392;50.964;6.952;2023-01-09T08:32:35;7.38;109.20
51305;HTU21D;37392;50.964;6.952;2023-01-09T08:35:02;7.37;109.30
51305;HTU21D;37392;50.964;6.952;2023-01-09T08:37:28;7.38;108.65
51305;HTU21D;37392;50.964;6.952;2023-01-09T08:39:53;7.35;109.62
51305;HTU21D;37392;50.964;6.952;2023-01-09T08:42:20;7.37;110.58
51305;HTU21D;37392;50.964;6.952;2023-01-09T08:45:05;7.33;110.73
51305;HTU21D;37392;50.964;6.952;2023-01-09T08:47:50;7.40;109.32
51305;HTU21D;37392;50.964;6.952;2023-01-09T08:50:23;7.43;109.00
51305;HTU21D;37392;50.964;6.952;2023-01-09T08:52:49;7.46;109.87
51305;HTU21D;37392;50.964;6.952;2023-01-09T08:55:15;7.45;110.84
51305;HTU21D;37392;50.964;6.952;2023-01-09T09:01:22;7.33;112.77
51305;HTU21D;37392;50.964;6.952;2023-01-09T09:03:47;7.33;112.90
51305;HTU21D;37392;50.964;6.952;2023-01-09T09:06:13;7.30;113.88
51305;HTU21D;37392;50.964;6.952;2023-01-09T09:08:39;7.30;115.52
51305;HTU21D;37392;50.964;6.952;2023-01-09T09:11:05;7.27;116.60
51305;HTU21D;37392;50.964;6.952;2023-01-09T09:13:30;7.24;117.44
51305;HTU21D;37392;50.964;6.952;2023-01-09T09:15:56;7.28;117.69
51305;HTU21D;37392;50.964;6.952;2023-01-09T09:18:22;7.20;118.07
51305;HTU21D;37392;50.964;6.952;2023-01-09T09:20:48;7.19;118.71
51305;HTU21D;37392;50.964;6.952;2023-01-09T09:23:14;7.22;-5.68
51305;HTU21D;37392;50.964;6.952;2023-01-09T09:25:40;7.25;118.79
51305;HTU21D;37392;50.964;6.952;2023-01-09T09:28:06;7.20;-5.44
51305;HTU21D;37392;50.964;6.952;2023-01-09T09:30:32;7.28;118.86
51305;HTU21D;37392;50.964;6.952;2023-01-09T09:32:57;7.24;-5.93
51305;HTU21D;37392;50.964;6.952;2023-01-09T09:35:23;7.28;-5.66
51305;HTU21D;37392;50.964;6.952;2023-01-09T09:37:56;7.28;-5.79
51305;HTU21D;37392;50.964;6.952;2023-01-09T09:44:10;7.30;-5.86
51305;HTU21D;37392;50.964;6.952;2023-01-09T09:47:39;7.30;118.98
51305;HTU21D;37392;50.964;6.952;2023-01-09T09:53:11;7.37;-4.79
51305;HTU21D;37392;50.964;6.952;2023-01-09T09:56:17;7.40;-5.29
51305;HTU21D;37392;50.964;6.952;2023-01-09T09:58:52;7.41;-5.38
51305;HTU21D;37392;50.964;6.952;2023-01-09T10:01:24;7.43;-5.79
51305;HTU21D;37392;50.964;6.952;2023-01-09T10:03:58;7.44;-5.65
51305;HTU21D;37392;50.964;6.952;2023-01-09T10:06:39;7.46;118.90
51305;HTU21D;37392;50.964;6.952;2023-01-09T10:09:45;7.47;-5.95
51305;HTU21D;37392;50.964;6.952;2023-01-09T10:15:17;7.56;117.88
51305;HTU21D;37392;50.964;6.952;2023-01-09T10:18:00;7.70;118.14
51305;HTU21D;37392;50.964;6.952;2023-01-09T10:29:17;8.18;112.73
51305;HTU21D;37392;50.964;6.952;2023-01-09T10:38:27;8.45;111.03
51305;HTU21D;37392;50.964;6.952;2023-01-09T10:41:39;8.57;110.81
51305;HTU21D;37392;50.964;6.952;2023-01-09T10:47:00;8.71;109.11
51305;HTU21D;37392;50.964;6.952;2023-01-09T10:49:29;8.78;108.87
51305;HTU21D;37392;50.964;6.952;2023-01-09T10:54:40;8.80;108.35
51305;HTU21D;37392;50.964;6.952;2023-01-09T10:57:36;8.73;108.46
51305;HTU21D;37392;50.964;6.952;2023-01-09T11:00:14;8.76;107.77
51305;HTU21D;37392;50.964;6.952;2023-01-09T11:02:41;8.80;106.91
51305;HTU21D;37392;50.964;6.952;2023-01-09T11:05:11;8.88;109.14
51305;HTU21D;37392;50.964;6.952;2023-01-09T11:07:41;8.92;107.02
51305;HTU21D;37392;50.964;6.952;2023-01-09T11:10:10;8.92;106.40
51305;HTU21D;37392;50.964;6.952;2023-01-09T11:12:38;8.96;108.10
51305;HTU21D;37392;50.964;6.952;2023-01-09T11:17:48;9.00;104.96
51305;HTU21D;37392;50.964;6.952;2023-01-09T11:22:51;8.78;106.71
51305;HTU21D;37392;50.964;6.952;2023-01-09T11:25:21;8.72;107.40
51305;HTU21D;37392;50.964;6.952;2023-01-09T11:30:28;8.65;106.82
51305;HTU21D;37392;50.964;6.952;2023-01-09T11:32:55;8.62;106.78
51305;HTU21D;37392;50.964;6.952;2023-01-09T11:35:29;8.64;106.95
51305;HTU21D;37392;50.964;6.952;2023-01-09T11:38:02;8.65;107.41
51305;HTU21D;37392;50.964;6.952;2023-01-09T11:40:36;8.67;106.53
51305;HTU21D;37392;50.964;6.952;2023-01-09T11:43:17;8.71;107.46
51305;HTU21D;37392;50.964;6.952;2023-01-09T11:45:51;8.71;106.25
51305;HTU21D;37392;50.964;6.952;2023-01-09T11:50:56;8.87;107.88
51305;HTU21D;37392;50.964;6.952;2023-01-09T11:53:25;8.89;107.11
51305;HTU21D;37392;50.964;6.952;2023-01-09T11:55:59;8.90;107.27
51305;HTU21D;37392;50.964;6.952;2023-01-09T11:58:31;8.94;106.46
51305;HTU21D;37392;50.964;6.952;2023-01-09T12:12:30;8.87;105.40
51305;HTU21D;37392;50.964;6.952;2023-01-09T12:27:13;8.72;105.46
51305;HTU21D;37392;50.964;6.952;2023-01-09T12:32:35;8.96;102.76
51305;HTU21D;37392;50.964;6.952;2023-01-09T12:44:40;9.65;99.22
51305;HTU21D;37392;50.964;6.952;2023-01-09T12:53:14;9.90;97.99
51305;HTU21D;37392;50.964;6.952;2023-01-09T12:55:50;9.90;96.84
51305;HTU21D;37392;50.964;6.952;2023-01-09T12:58:39;9.92;97.52
51305;HTU21D;37392;50.964;6.952;2023-01-09T13:01:12;9.88;97.14
51305;HTU21D;37392;50.964;6.952;2023-01-09T13:04:05;9.83;98.09
51305;HTU21D;37392;50.964;6.952;2023-01-09T13:06:33;9.92;97.42
51305;HTU21D;37392;50.964;6.952;2023-01-09T13:09:11;9.93;95.32
51305;HTU21D;37392;50.964;6.952;2023-01-09T13:11:47;9.92;96.83
51305;HTU21D;37392;50.964;6.952;2023-01-09T13:14:38;9.89;95.67
51305;HTU21D;37392;50.964;6.952;2023-01-09T13:17:21;10.00;96.95
51305;HTU21D;37392;50.964;6.952;2023-01-09T13:19:49;10.05;96.36
51305;HTU21D;37392;50.964;6.952;2023-01-09T13:22:17;10.07;95.38
51305;HTU21D;37392;50.964;6.952;2023-01-09T13:25:00;10.07;94.63
51305;HTU21D;37392;50.964;6.952;2023-01-09T13:27:39;10.19;96.22
51305;HTU21D;37392;50.964;6.952;2023-01-09T13:30:14;10.21;94.83
51305;HTU21D;37392;50.964;6.952;2023-01-09T13:33:49;10.20;94.70
51305;HTU21D;37392;50.964;6.952;2023-01-09T13:36:06;10.18;93.98
51305;HTU21D;37392;50.964;6.952;2023-01-09T13:38:34;10.16;94.15
51305;HTU21D;37392;50.964;6.952;2023-01-09T13:41:13;10.04;91.45
51305;HTU21D;37392;50.964;6.952;2023-01-09T13:44:03;10.00;93.75
51305;HTU21D;37392;50.964;6.952;2023-01-09T13:46:43;10.14;94.09
51305;HTU21D;37392;50.964;6.952;2023-01-09T14:08:09;9.92;93.17
51305;HTU21D;37392;50.964;6.952;2023-01-09T14:10:46;9.84;92.50
51305;HTU21D;37392;50.964;6.952;2023-01-09T14:13:43;9.74;93.83
51305;HTU21D;37392;50.964;6.952;2023-01-09T14:16:17;9.67;93.82
51305;HTU21D;37392;50.964;6.952;2023-01-09T14:18:48;9.55;92.86
51305;HTU21D;37392;50.964;6.952;2023-01-09T14:21:18;9.49;92.85
51305;HTU21D;37392;50.964;6.952;2023-01-09T14:23:50;9.45;93.18
51305;HTU21D;37392;50.964;6.952;2023-01-09T14:26:42;9.36;93.22
51305;HTU21D;37392;50.964;6.952;2023-01-09T14:29:40;9.29;93.24
51305;HTU21D;37392;50.964;6.952;2023-01-09T14:35:19;9.21;94.23
51305;HTU21D;37392;50.964;6.952;2023-01-09T14:37:58;9.17;93.79
51305;HTU21D;37392;50.964;6.952;2023-01-09T14:40:27;9.17;94.15
51305;HTU21D;37392;50.964;6.952;2023-01-09T14:42:54;9.17;94.07
51305;HTU21D;37392;50.964;6.952;2023-01-09T14:45:25;9.14;93.09
51305;HTU21D;37392;50.964;6.952;2023-01-09T14:47:57;9.14;93.72
51305;HTU21D;37392;50.964;6.952;2023-01-09T14:50:50;9.09;93.56
51305;HTU21D;37392;50.964;6.952;2023-01-09T14:53:25;9.02;93.62
51305;HTU21D;37392;50.964;6.952;2023-01-09T14:56:03;9.05;93.66
51305;HTU21D;37392;50.964;6.952;2023-01-09T14:58:35;9.04;94.66
51305;HTU21D;37392;50.964;6.952;2023-01-09T15:08:19;8.97;93.95
51305;HTU21D;37392;50.964;6.952;2023-01-09T15:11:13;8.90;95.03
51305;HTU21D;37392;50.964;6.952;2023-01-09T15:14:23;8.87;94.52
51305;HTU21D;37392;50.964;6.952;2023-01-09T15:17:58;8.79;95.04
51305;HTU21D;37392;50.964;6.952;2023-01-09T15:20:33;8.74;95.94
51305;HTU21D;37392;50.964;6.952;2023-01-09T15:37:50;8.58;95.26
51305;HTU21D;37392;50.964;6.952;2023-01-09T15:44:36;8.53;96.42
51305;HTU21D;37392;50.964;6.952;2023-01-09T15:47:33;8.51;96.70
51305;HTU21D;37392;50.964;6.952;2023-01-09T15:50:31;8.46;97.29
51305;HTU21D;37392;50.964;6.952;2023-01-09T17:09:19;7.23;104.22
51305;HTU21D;37392;50.964;6.952;2023-01-09T17:56:18;6.17;105.77
51305;HTU21D;37392;50.964;6.952;2023-01-09T17:58:47;6.13;105.80
51305;HTU21D;37392;50.964;6.952;2023-01-09T18:04:26;6.20;105.85
51305;HTU21D;37392;50.964;6.952;2023-01-09T18:06:52;6.21;105.89
51305;HTU21D;37392;50.964;6.952;2023-01-09T18:09:18;6.26;105.76
51305;HTU21D;37392;50.964;6.952;2023-01-09T18:11:44;6.34;105.63
51305;HTU21D;37392;50.964;6.952;2023-01-09T18:14:16;6.34;105.43
51305;HTU21D;37392;50.964;6.952;2023-01-09T18:16:42;6.29;105.67
51305;HTU21D;37392;50.964;6.952;2023-01-09T18:19:20;6.39;106.03
51305;HTU21D;37392;50.964;6.952;2023-01-09T18:22:04;6.43;105.75
51305;HTU21D;37392;50.964;6.952;2023-01-09T18:24:30;6.54;105.49
51305;HTU21D;37392;50.964;6.952;2023-01-09T18:26:56;6.56;105.91
51305;HTU21D;37392;50.964;6.952;2023-01-09T18:29:22;6.49;106.09
51305;HTU21D;37392;50.964;6.952;2023-01-09T18:31:50;6.45;106.30
51305;HTU21D;37392;50.964;6.952;2023-01-09T18:34:17;6.46;106.52
51305;HTU21D;37392;50.964;6.952;2023-01-09T18:36:46;6.55;106.67
51305;HTU21D;37392;50.964;6.952;2023-01-09T18:39:12;6.65;106.61
51305;HTU21D;37392;50.964;6.952;2023-01-09T18:41:39;6.64;106.92
51305;HTU21D;37392;50.964;6.952;2023-01-09T18:44:05;6.75;107.20
51305;HTU21D;37392;50.964;6.952;2023-01-09T18:46:31;6.78;108.38
51305;HTU21D;37392;50.964;6.952;2023-01-09T18:48:58;6.78;108.94
51305;HTU21D;37392;50.964;6.952;2023-01-09T18:59:20;6.70;111.84
51305;HTU21D;37392;50.964;6.952;2023-01-09T19:06:19;6.75;111.78
51305;HTU21D;37392;50.964;6.952;2023-01-09T19:09:30;6.72;112.41
51305;HTU21D;37392;50.964;6.952;2023-01-09T19:11:58;6.73;112.36
51305;HTU21D;37392;50.964;6.952;2023-01-09T19:14:30;6.75;112.05
51305;HTU21D;37392;50.964;6.952;2023-01-09T19:16:55;6.80;111.95
51305;HTU21D;37392;50.964;6.952;2023-01-09T19:19:26;6.80;112.10
51305;HTU21D;37392;50.964;6.952;2023-01-09T19:21:53;6.80;111.68
51305;HTU21D;37392;50.964;6.952;2023-01-09T19:24:19;6.79;111.87
51305;HTU21D;37392;50.964;6.952;2023-01-09T19:26:45;6.78;112.36
51305;HTU21D;37392;50.964;6.952;2023-01-09T19:29:12;6.74;112.43
51305;HTU21D;37392;50.964;6.952;2023-01-09T19:31:44;6.76;112.56
51305;HTU21D;37392;50.964;6.952;2023-01-09T19:34:13;6.82;112.27
51305;HTU21D;37392;50.964;6.952;2023-01-09T19:36:40;6.83;112.20
51305;HTU21D;37392;50.964;6.952;2023-01-09T19:39:08;6.86;112.16
51305;HTU21D;37392;50.964;6.952;2023-01-09T19:41:34;6.94;112.00
51305;HTU21D;37392;50.964;6.952;2023-01-09T19:43:59;6.94;111.77
51305;HTU21D;37392;50.964;6.952;2023-01-09T19:46:26;6.98;111.55
51305;HTU21D;37392;50.964;6.952;2023-01-09T19:48:53;7.01;111.36
51305;HTU21D;37392;50.964;6.952;2023-01-09T19:51:19;7.08;110.68
51305;HTU21D;37392;50.964;6.952;2023-01-09T19:53:54;7.07;110.93
51305;HTU21D;37392;50.964;6.952;2023-01-09T19:56:28;7.03;111.15
51305;HTU21D;37392;50.964;6.952;2023-01-09T19:59:03;7.05;111.24
51305;HTU21D;37392;50.964;6.952;2023-01-09T20:01:34;7.07;111.06
51305;HTU21D;37392;50.964;6.952;2023-01-09T20:04:03;7.13;110.71
51305;HTU21D;37392;50.964;6.952;2023-01-09T20:06:35;7.18;110.22
51305;HTU21D;37392;50.964;6.952;2023-01-09T20:09:03;7.19;110.63
51305;HTU21D;37392;50.964;6.952;2023-01-09T20:11:32;7.14;111.35
51305;HTU21D;37392;50.964;6.952;2023-01-09T20:13:58;7.12;111.51
51305;HTU21D;37392;50.964;6.952;2023-01-09T20:16:27;6.99;111.84
51305;HTU21D;37392;50.964;6.952;2023-01-09T20:18:59;6.86;112.15
51305;HTU21D;37392;50.964;6.952;2023-01-09T20:21:28;6.79;112.45
51305;HTU21D;37392;50.964;6.952;2023-01-09T20:23:57;6.79;112.72
51305;HTU21D;37392;50.964;6.952;2023-01-09T20:26:24;6.80;112.90
51305;HTU21D;37392;50.964;6.952;2023-01-09T20:28:51;6.85;112.45
51305;HTU21D;37392;50.964;6.952;2023-01-09T20:31:19;6.83;111.71
51305;HTU21D;37392;50.964;6.952;2023-01-09T20:33:46;6.79;111.58
51305;HTU21D;37392;50.964;6.952;2023-01-09T20:36:13;6.64;111.58
51305;HTU21D;37392;50.964;6.952;2023-01-09T20:38:40;6.55;112.11
51305;HTU21D;37392;50.964;6.952;2023-01-09T20:41:11;6.58;112.14
51305;HTU21D;37392;50.964;6.952;2023-01-09T20:44:00;6.67;111.92
51305;HTU21D;37392;50.964;6.952;2023-01-09T20:46:32;6.76;111.27
51305;HTU21D;37392;50.964;6.952;2023-01-09T20:49:04;6.79;111.06
51305;HTU21D;37392;50.964;6.952;2023-01-09T20:51:35;6.87;111.18
51305;HTU21D;37392;50.964;6.952;2023-01-09T20:54:04;6.88;110.49
51305;HTU21D;37392;50.964;6.952;2023-01-09T20:56:30;6.89;110.52
51305;HTU21D;37392;50.964;6.952;2023-01-09T20:58:57;6.90;109.80
51305;HTU21D;37392;50.964;6.952;2023-01-09T21:01:26;6.83;109.88
51305;HTU21D;37392;50.964;6.952;2023-01-09T21:03:53;6.78;109.55